createdAt,value
2018-04-16T00:00:38.331Z,1005.32
2018-04-16T00:01:38.326Z,1005.31
2018-04-16T00:02:38.374Z,1005.31
2018-04-16T00:03:38.335Z,1005.29
2018-04-16T00:04:38.329Z,1005.31
2018-04-16T00:05:38.339Z,1005.28
2018-04-16T00:06:38.361Z,1005.24
2018-04-16T00:07:38.369Z,1005.06
2018-04-16T00:08:38.346Z,1005.19
2018-04-16T00:09:38.354Z,1005.18
2018-04-16T00:10:38.357Z,1005.20
2018-04-16T00:11:38.359Z,1005.16
2018-04-16T00:12:38.367Z,1005.17
2018-04-16T00:13:38.369Z,1005.19
2018-04-16T00:14:38.385Z,1005.19
2018-04-16T00:15:38.370Z,1005.15
2018-04-16T00:16:38.373Z,1005.17
2018-04-16T00:17:38.380Z,1005.19
2018-04-16T00:18:38.387Z,1005.20
2018-04-16T00:19:38.393Z,1005.19
2018-04-16T00:20:38.390Z,1005.24
2018-04-16T00:21:38.394Z,1005.25
2018-04-16T00:22:38.414Z,1005.23
2018-04-16T00:23:38.405Z,1005.21
2018-04-16T00:24:38.408Z,1005.21
2018-04-16T00:25:38.423Z,1005.16
2018-04-16T00:26:38.405Z,1005.19
2018-04-16T00:27:38.425Z,1005.16
2018-04-16T00:28:38.439Z,1005.16
2018-04-16T00:29:38.436Z,1005.12
2018-04-16T00:30:38.436Z,1005.14
2018-04-16T00:31:38.430Z,1005.09
2018-04-16T00:32:38.428Z,1005.11
2018-04-16T00:33:38.430Z,1005.07
2018-04-16T00:34:38.448Z,1005.10
2018-04-16T00:35:38.439Z,1005.15
2018-04-16T00:36:38.441Z,1005.14
2018-04-16T00:37:38.457Z,1005.15
2018-04-16T00:38:38.457Z,1005.13
2018-04-16T00:39:38.457Z,1005.13
2018-04-16T00:40:38.461Z,1005.19
2018-04-16T00:41:38.460Z,1005.15
2018-04-16T00:42:38.460Z,1005.17
2018-04-16T00:43:38.467Z,1005.14
2018-04-16T00:44:38.468Z,1005.15
2018-04-16T00:45:38.479Z,1005.12
2018-04-16T00:46:38.483Z,1005.12
2018-04-16T00:47:38.509Z,1005.15
2018-04-16T00:48:38.494Z,1005.11
2018-04-16T00:49:38.496Z,1005.12
2018-04-16T00:50:38.490Z,1005.12
2018-04-16T00:51:38.497Z,1005.15
2018-04-16T00:52:38.497Z,1005.18
2018-04-16T00:53:38.693Z,1005.15
2018-04-16T00:54:38.511Z,1005.19
2018-04-16T00:55:38.511Z,1005.13
2018-04-16T00:56:38.517Z,1005.16
2018-04-16T00:57:38.522Z,1005.18
2018-04-16T00:58:38.521Z,1005.17
2018-04-16T00:59:38.532Z,1005.19
2018-04-16T01:00:38.533Z,1005.20
2018-04-16T01:01:38.527Z,1005.18
2018-04-16T01:02:38.533Z,1005.15
2018-04-16T01:03:38.541Z,1005.22
2018-04-16T01:04:38.543Z,1005.22
2018-04-16T01:05:38.549Z,1005.22
2018-04-16T01:06:38.545Z,1005.24
2018-04-16T01:07:38.557Z,1005.23
2018-04-16T01:08:38.560Z,1005.26
2018-04-16T01:09:38.558Z,1005.27
2018-04-16T01:10:38.558Z,1005.25
2018-04-16T01:11:38.588Z,1005.25
2018-04-16T01:12:38.574Z,1005.25
2018-04-16T01:13:38.565Z,1005.30
2018-04-16T01:14:38.574Z,1005.30
2018-04-16T01:15:38.586Z,1005.29
2018-04-16T01:16:38.599Z,1005.27
2018-04-16T01:17:38.592Z,1005.29
2018-04-16T01:18:38.596Z,1005.30
2018-04-16T01:19:38.599Z,1005.27
2018-04-16T01:20:38.598Z,1005.29
2018-04-16T01:21:38.600Z,1005.31
2018-04-16T01:22:38.604Z,1005.29
2018-04-16T01:23:38.613Z,1005.32
2018-04-16T01:24:38.651Z,1005.35
2018-04-16T01:25:38.613Z,1005.34
2018-04-16T01:26:38.612Z,1005.35
2018-04-16T01:27:38.627Z,1005.33
2018-04-16T01:28:38.627Z,1005.35
2018-04-16T01:29:38.633Z,1005.37
2018-04-16T01:30:38.642Z,1005.34
2018-04-16T01:31:38.626Z,1005.35
2018-04-16T01:32:38.652Z,1005.36
2018-04-16T01:33:38.634Z,1005.38
2018-04-16T01:34:38.645Z,1005.34
2018-04-16T01:35:38.644Z,1005.38
2018-04-16T01:36:38.645Z,1005.37
2018-04-16T01:37:38.650Z,1005.39
2018-04-16T01:38:38.656Z,1005.39
2018-04-16T01:39:38.657Z,1005.34
2018-04-16T01:40:38.659Z,1005.39
2018-04-16T01:41:38.685Z,1005.37
2018-04-16T01:42:38.679Z,1005.37
2018-04-16T01:43:38.685Z,1005.37
2018-04-16T01:44:39.856Z,1005.40
2018-04-16T01:45:42.308Z,1005.42
2018-04-16T01:46:39.544Z,1005.44
2018-04-16T01:47:39.856Z,1005.43
2018-04-16T01:48:38.690Z,1005.41
2018-04-16T01:49:38.696Z,1005.41
2018-04-16T01:50:38.705Z,1005.42
2018-04-16T01:51:38.697Z,1005.41
2018-04-16T01:52:38.707Z,1005.41
2018-04-16T01:53:38.713Z,1005.40
2018-04-16T01:54:38.714Z,1005.40
2018-04-16T01:55:38.712Z,1005.43
2018-04-16T01:56:38.724Z,1005.43
2018-04-16T01:57:38.713Z,1005.42
2018-04-16T01:58:42.533Z,1005.39
2018-04-16T01:59:38.719Z,1005.45
2018-04-16T02:00:38.722Z,1005.45
2018-04-16T02:01:38.735Z,1005.44
2018-04-16T02:02:38.732Z,1005.48
2018-04-16T02:03:38.738Z,1005.44
2018-04-16T02:04:38.738Z,1005.44
2018-04-16T02:05:38.743Z,1005.43
2018-04-16T02:06:38.752Z,1005.45
2018-04-16T02:07:38.745Z,1005.47
2018-04-16T02:08:38.754Z,1005.50
2018-04-16T02:09:38.760Z,1005.47
2018-04-16T02:10:38.757Z,1005.44
2018-04-16T02:11:38.759Z,1005.45
2018-04-16T02:12:38.768Z,1005.46
2018-04-16T02:13:38.765Z,1005.47
2018-04-16T02:14:38.773Z,1005.44
2018-04-16T02:15:38.772Z,1005.46
2018-04-16T02:16:38.787Z,1005.45
2018-04-16T02:17:38.773Z,1005.45
2018-04-16T02:18:38.779Z,1005.40
2018-04-16T02:19:38.784Z,1005.43
2018-04-16T02:20:38.791Z,1005.43
2018-04-16T02:21:38.793Z,1005.45
2018-04-16T02:22:38.798Z,1005.46
2018-04-16T02:23:38.800Z,1005.44
2018-04-16T02:24:38.803Z,1005.43
2018-04-16T02:25:38.807Z,1005.43
2018-04-16T02:26:38.806Z,1005.37
2018-04-16T02:27:38.814Z,1005.38
2018-04-16T02:28:38.821Z,1005.34
2018-04-16T02:29:38.811Z,1005.36
2018-04-16T02:30:38.820Z,1005.37
2018-04-16T02:31:38.826Z,1005.38
2018-04-16T02:32:39.708Z,1005.37
2018-04-16T02:33:38.827Z,1005.38
2018-04-16T02:34:38.830Z,1005.37
2018-04-16T02:35:38.837Z,1005.39
2018-04-16T02:36:38.843Z,1005.38
2018-04-16T02:37:38.838Z,1005.38
2018-04-16T02:38:38.848Z,1005.37
2018-04-16T02:39:38.846Z,1005.39
2018-04-16T02:40:38.848Z,1005.35
2018-04-16T02:41:38.859Z,1005.36
2018-04-16T02:42:38.860Z,1005.38
2018-04-16T02:43:38.869Z,1005.39
2018-04-16T02:44:38.860Z,1005.42
2018-04-16T02:45:38.870Z,1005.42
2018-04-16T02:46:38.876Z,1005.46
2018-04-16T02:47:38.881Z,1005.46
2018-04-16T02:48:38.885Z,1005.44
2018-04-16T02:49:38.891Z,1005.43
2018-04-16T02:50:38.888Z,1005.45
2018-04-16T02:51:38.915Z,1005.47
2018-04-16T02:52:38.890Z,1005.47
2018-04-16T02:53:38.888Z,1005.50
2018-04-16T02:54:38.899Z,1005.49
2018-04-16T02:55:38.903Z,1005.49
2018-04-16T02:56:38.900Z,1005.49
2018-04-16T02:57:38.904Z,1005.53
2018-04-16T02:58:38.907Z,1005.51
2018-04-16T02:59:38.910Z,1005.53
2018-04-16T03:00:38.922Z,1005.50
2018-04-16T03:01:38.915Z,1005.51
2018-04-16T03:02:38.920Z,1005.49
2018-04-16T03:03:38.918Z,1005.51
2018-04-16T03:04:38.928Z,1005.50
2018-04-16T03:05:38.930Z,1005.48
2018-04-16T03:06:38.934Z,1005.48
2018-04-16T03:07:38.933Z,1005.51
2018-04-16T03:08:38.939Z,1005.50
2018-04-16T03:09:38.942Z,1005.52
2018-04-16T03:10:38.963Z,1005.52
2018-04-16T03:11:38.956Z,1005.51
2018-04-16T03:12:38.964Z,1005.57
2018-04-16T03:13:38.971Z,1005.56
2018-04-16T03:14:38.972Z,1005.54
2018-04-16T03:15:38.972Z,1005.57
2018-04-16T03:16:38.980Z,1005.55
2018-04-16T03:17:38.989Z,1005.60
2018-04-16T03:18:38.972Z,1005.60
2018-04-16T03:19:39.003Z,1005.65
2018-04-16T03:20:39.014Z,1005.62
2018-04-16T03:21:38.973Z,1005.62
2018-04-16T03:22:38.976Z,1005.59
2018-04-16T03:23:38.993Z,1005.60
2018-04-16T03:24:38.988Z,1005.59
2018-04-16T03:25:39.028Z,1005.60
2018-04-16T03:26:38.994Z,1005.59
2018-04-16T03:27:38.992Z,1005.56
2018-04-16T03:28:39.000Z,1005.58
2018-04-16T03:29:38.998Z,1005.58
2018-04-16T03:30:39.014Z,1005.62
2018-04-16T03:31:39.009Z,1005.62
2018-04-16T03:32:39.015Z,1005.65
2018-04-16T03:33:39.024Z,1005.65
2018-04-16T03:34:39.026Z,1005.64
2018-04-16T03:35:39.027Z,1005.65
2018-04-16T03:36:39.028Z,1005.68
2018-04-16T03:37:39.039Z,1005.66
2018-04-16T03:38:39.046Z,1005.69
2018-04-16T03:39:39.045Z,1005.68
2018-04-16T03:40:39.052Z,1005.69
2018-04-16T03:41:39.031Z,1005.68
2018-04-16T03:42:39.067Z,1005.71
2018-04-16T03:43:39.070Z,1005.72
2018-04-16T03:44:39.041Z,1005.76
2018-04-16T03:45:39.054Z,1005.77
2018-04-16T03:46:39.060Z,1005.79
2018-04-16T03:47:39.057Z,1005.81
2018-04-16T03:48:39.057Z,1005.81
2018-04-16T03:49:39.058Z,1005.76
2018-04-16T03:50:39.064Z,1005.77
2018-04-16T03:51:39.061Z,1005.80
2018-04-16T03:52:39.069Z,1005.76
2018-04-16T03:53:39.074Z,1005.76
2018-04-16T03:54:39.081Z,1005.77
2018-04-16T03:55:39.087Z,1005.73
2018-04-16T03:56:39.095Z,1005.77
2018-04-16T03:57:39.088Z,1005.79
2018-04-16T03:58:39.132Z,1005.77
2018-04-16T03:59:39.097Z,1005.80
2018-04-16T04:00:39.095Z,1005.78
2018-04-16T04:01:39.112Z,1005.79
2018-04-16T04:02:39.113Z,1005.81
2018-04-16T04:03:39.743Z,1005.84
2018-04-16T04:04:39.110Z,1005.81
2018-04-16T04:05:39.105Z,1005.83
2018-04-16T04:06:39.122Z,1005.82
2018-04-16T04:07:39.113Z,1005.86
2018-04-16T04:08:39.106Z,1005.84
2018-04-16T04:09:39.119Z,1005.83
2018-04-16T04:10:39.113Z,1005.82
2018-04-16T04:11:39.120Z,1005.86
2018-04-16T04:12:39.124Z,1005.88
2018-04-16T04:13:39.128Z,1005.88
2018-04-16T04:14:39.143Z,1005.84
2018-04-16T04:15:39.127Z,1005.93
2018-04-16T04:16:39.142Z,1005.92
2018-04-16T04:17:39.132Z,1005.93
2018-04-16T04:18:39.146Z,1005.98
2018-04-16T04:19:39.139Z,1005.99
2018-04-16T04:20:39.147Z,1005.98
2018-04-16T04:21:39.147Z,1005.98
2018-04-16T04:22:39.146Z,1005.99
2018-04-16T04:23:39.173Z,1006.02
2018-04-16T04:24:39.156Z,1005.98
2018-04-16T04:25:39.158Z,1006.01
2018-04-16T04:26:39.162Z,1006.01
2018-04-16T04:27:39.164Z,1006.00
2018-04-16T04:28:39.170Z,1006.03
2018-04-16T04:29:39.170Z,1006.02
2018-04-16T04:30:39.179Z,1006.01
2018-04-16T04:31:39.175Z,1006.01
2018-04-16T04:32:39.172Z,1006.02
2018-04-16T04:33:39.184Z,1006.01
2018-04-16T04:34:39.184Z,1006.05
2018-04-16T04:35:39.183Z,1006.05
2018-04-16T04:36:39.190Z,1006.05
2018-04-16T04:37:39.190Z,1006.04
2018-04-16T04:38:39.194Z,1006.07
2018-04-16T04:39:39.198Z,1006.03
2018-04-16T04:40:39.203Z,1006.04
2018-04-16T04:41:39.254Z,1006.09
2018-04-16T04:42:39.209Z,1006.11
2018-04-16T04:43:39.212Z,1006.12
2018-04-16T04:44:39.208Z,1006.12
2018-04-16T04:45:39.219Z,1006.17
2018-04-16T04:46:39.220Z,1006.18
2018-04-16T04:47:39.213Z,1006.21
2018-04-16T04:48:39.219Z,1006.20
2018-04-16T04:49:39.232Z,1006.25
2018-04-16T04:50:39.229Z,1006.25
2018-04-16T04:51:39.242Z,1006.22
2018-04-16T04:52:39.321Z,1006.22
2018-04-16T04:53:39.247Z,1006.23
2018-04-16T04:54:39.252Z,1006.23
2018-04-16T04:55:39.244Z,1006.24
2018-04-16T04:56:39.243Z,1006.25
2018-04-16T04:57:39.244Z,1006.24
2018-04-16T04:58:39.252Z,1006.26
2018-04-16T04:59:39.311Z,1006.27
2018-04-16T05:00:39.252Z,1006.27
2018-04-16T05:01:39.254Z,1006.28
2018-04-16T05:02:39.260Z,1006.31
2018-04-16T05:03:39.259Z,1006.35
2018-04-16T05:04:39.258Z,1006.36
2018-04-16T05:05:39.263Z,1006.37
2018-04-16T05:06:39.265Z,1006.35
2018-04-16T05:07:39.277Z,1006.40
2018-04-16T05:08:39.278Z,1006.36
2018-04-16T05:09:39.286Z,1006.37
2018-04-16T05:10:39.280Z,1006.39
2018-04-16T05:11:39.286Z,1006.38
2018-04-16T05:12:39.287Z,1006.38
2018-04-16T05:13:39.280Z,1006.42
2018-04-16T05:14:39.286Z,1006.41
2018-04-16T05:15:39.294Z,1006.44
2018-04-16T05:16:39.306Z,1006.47
2018-04-16T05:17:39.301Z,1006.46
2018-04-16T05:18:39.310Z,1006.47
2018-04-16T05:19:39.302Z,1006.50
2018-04-16T05:20:39.304Z,1006.48
2018-04-16T05:21:39.305Z,1006.53
2018-04-16T05:22:39.321Z,1006.52
2018-04-16T05:23:39.371Z,1006.54
2018-04-16T05:24:39.315Z,1006.55
2018-04-16T05:25:39.321Z,1006.57
2018-04-16T05:26:39.318Z,1006.58
2018-04-16T05:27:39.340Z,1006.58
2018-04-16T05:28:39.335Z,1006.60
2018-04-16T05:29:39.335Z,1006.61
2018-04-16T05:30:39.331Z,1006.61
2018-04-16T05:31:39.335Z,1006.63
2018-04-16T05:32:39.335Z,1006.64
2018-04-16T05:33:39.342Z,1006.64
2018-04-16T05:34:39.343Z,1006.69
2018-04-16T05:35:39.347Z,1006.69
2018-04-16T05:36:39.353Z,1006.76
2018-04-16T05:37:39.367Z,1006.80
2018-04-16T05:38:39.360Z,1006.80
2018-04-16T05:39:39.367Z,1006.84
2018-04-16T05:40:39.373Z,1006.90
2018-04-16T05:41:39.371Z,1006.93
2018-04-16T05:42:39.394Z,1006.92
2018-04-16T05:43:39.369Z,1006.95
2018-04-16T05:44:39.396Z,1006.96
2018-04-16T05:45:39.440Z,1006.95
2018-04-16T05:46:39.381Z,1007.00
2018-04-16T05:47:39.384Z,1006.98
2018-04-16T05:48:39.380Z,1007.00
2018-04-16T05:49:39.393Z,1006.98
2018-04-16T05:50:39.565Z,1007.07
2018-04-16T05:51:39.585Z,1007.09
2018-04-16T05:52:39.503Z,1007.13
2018-04-16T05:53:39.399Z,1007.15
2018-04-16T05:54:40.712Z,1007.15
2018-04-16T05:55:39.404Z,1007.17
2018-04-16T05:56:39.407Z,1007.16
2018-04-16T05:57:39.413Z,1007.15
2018-04-16T05:58:39.408Z,1007.16
2018-04-16T05:59:39.417Z,1007.12
2018-04-16T06:00:39.584Z,1007.14
2018-04-16T06:01:39.428Z,1007.18
2018-04-16T06:02:39.430Z,1007.19
2018-04-16T06:03:39.429Z,1007.23
2018-04-16T06:04:39.434Z,1007.27
2018-04-16T06:05:39.442Z,1007.34
2018-04-16T06:06:39.482Z,1007.68
2018-04-16T06:07:39.443Z,1007.93
2018-04-16T06:08:39.459Z,1007.90
2018-04-16T06:09:39.443Z,1007.96
2018-04-16T06:10:39.506Z,1007.97
2018-04-16T06:11:39.456Z,1007.96
2018-04-16T06:12:39.458Z,1008.04
2018-04-16T06:13:39.526Z,1008.10
2018-04-16T06:14:39.468Z,1008.10
2018-04-16T06:15:39.483Z,1008.10
2018-04-16T06:16:39.477Z,1008.12
2018-04-16T06:17:39.483Z,1008.12
2018-04-16T06:18:39.482Z,1008.12
2018-04-16T06:19:39.615Z,1008.19
2018-04-16T06:20:39.497Z,1008.19
2018-04-16T06:21:39.502Z,1008.21
2018-04-16T06:22:39.514Z,1008.20
2018-04-16T06:23:39.511Z,1008.23
2018-04-16T06:24:39.521Z,1008.19
2018-04-16T06:25:39.539Z,1008.19
2018-04-16T06:26:39.539Z,1008.22
2018-04-16T06:27:39.552Z,1008.25
2018-04-16T06:28:39.570Z,1008.29
2018-04-16T06:29:39.558Z,1008.28
2018-04-16T06:30:40.708Z,1008.24
2018-04-16T06:31:39.584Z,1008.23
2018-04-16T06:32:39.597Z,1007.93
2018-04-16T06:33:39.611Z,1007.77
2018-04-16T06:34:39.616Z,1007.49
2018-04-16T06:35:39.619Z,1007.51
2018-04-16T06:36:39.636Z,1007.53
2018-04-16T06:37:39.639Z,1007.57
2018-04-16T06:38:39.648Z,1008.23
2018-04-16T06:39:39.680Z,1007.97
2018-04-16T06:40:39.678Z,1007.82
2018-04-16T06:41:39.697Z,1008.26
2018-04-16T06:42:39.696Z,1007.71
2018-04-16T06:43:39.708Z,1007.79
2018-04-16T06:44:39.720Z,1007.88
2018-04-16T06:45:39.725Z,1008.46
2018-04-16T06:46:39.733Z,1008.43
2018-04-16T06:47:39.758Z,1008.42
2018-04-16T06:48:39.751Z,1008.50
2018-04-16T06:49:39.760Z,1008.60
2018-04-16T06:50:39.767Z,1008.57
2018-04-16T06:51:39.818Z,1008.59
2018-04-16T06:52:39.788Z,1008.65
2018-04-16T06:53:39.806Z,1008.61
2018-04-16T06:54:39.816Z,1008.67
2018-04-16T06:55:39.823Z,1008.59
2018-04-16T06:56:39.841Z,1008.13
2018-04-16T06:57:39.841Z,1008.33
2018-04-16T06:58:39.863Z,1008.75
2018-04-16T06:59:39.868Z,1008.82
2018-04-16T07:00:39.890Z,1008.74
2018-04-16T07:01:39.890Z,1008.42
2018-04-16T07:02:39.907Z,1008.92
2018-04-16T07:03:39.919Z,1008.84
2018-04-16T07:04:39.944Z,1008.86
2018-04-16T07:05:39.951Z,1008.41
2018-04-16T07:06:39.966Z,1008.57
2018-04-16T07:07:39.967Z,1008.38
2018-04-16T07:08:39.997Z,1008.29
2018-04-16T07:09:39.994Z,1008.52
2018-04-16T07:10:40.016Z,1008.48
2018-04-16T07:11:40.030Z,1009.09
2018-04-16T07:12:40.034Z,1008.31
2018-04-16T07:13:40.059Z,1008.39
2018-04-16T07:14:40.073Z,1008.50
2018-04-16T07:15:40.100Z,1008.67
2018-04-16T07:16:40.095Z,1008.62
2018-04-16T07:17:40.116Z,1008.34
2018-04-16T07:18:40.135Z,1008.17
2018-04-16T07:19:40.131Z,1008.07
2018-04-16T07:20:40.155Z,1008.05
2018-04-16T07:21:40.170Z,1008.07
2018-04-16T07:22:40.176Z,1008.03
2018-04-16T07:23:40.193Z,1008.06
2018-04-16T07:24:40.203Z,1008.05
2018-04-16T07:25:40.216Z,1008.03
2018-04-16T07:26:40.235Z,1008.05
2018-04-16T07:27:40.240Z,1008.00
2018-04-16T07:28:40.257Z,1008.07
2018-04-16T07:29:40.266Z,1008.05
2018-04-16T07:30:40.279Z,1008.08
2018-04-16T07:31:40.291Z,1008.13
2018-04-16T07:32:40.300Z,1008.17
2018-04-16T07:33:40.377Z,1008.13
2018-04-16T07:34:40.323Z,1008.18
2018-04-16T07:35:40.353Z,1008.18
2018-04-16T07:36:40.350Z,1008.25
2018-04-16T07:37:40.356Z,1008.31
2018-04-16T07:38:40.368Z,1008.33
2018-04-16T07:39:40.371Z,1008.65
2018-04-16T07:40:40.392Z,1008.82
2018-04-16T07:41:40.390Z,1009.26
2018-04-16T07:42:40.409Z,1009.23
2018-04-16T07:43:40.468Z,1009.27
2018-04-16T07:44:40.425Z,1009.28
2018-04-16T07:45:40.440Z,1009.33
2018-04-16T07:46:40.445Z,1009.25
2018-04-16T07:47:40.468Z,1009.36
2018-04-16T07:48:40.477Z,1009.23
2018-04-16T07:49:40.490Z,1009.38
2018-04-16T07:50:40.498Z,1009.13
2018-04-16T07:51:40.502Z,1009.12
2018-04-16T07:52:40.522Z,1008.57
2018-04-16T07:53:46.051Z,1008.56
2018-04-16T07:54:40.538Z,1008.66
2018-04-16T07:55:40.553Z,1009.34
2018-04-16T07:56:40.564Z,1009.42
2018-04-16T07:57:40.616Z,1009.02
2018-04-16T07:58:40.633Z,1008.85
2018-04-16T07:59:40.604Z,1008.85
2018-04-16T08:00:40.625Z,1009.36
2018-04-16T08:01:40.628Z,1009.62
2018-04-16T08:02:40.658Z,1009.60
2018-04-16T08:03:40.659Z,1009.30
2018-04-16T08:04:40.675Z,1009.07
2018-04-16T08:05:40.682Z,1009.15
2018-04-16T08:06:40.767Z,1009.66
2018-04-16T08:07:40.711Z,1009.71
2018-04-16T08:08:40.728Z,1009.14
2018-04-16T08:09:40.742Z,1009.24
2018-04-16T08:10:40.753Z,1009.82
2018-04-16T08:11:40.762Z,1009.86
2018-04-16T08:12:40.790Z,1009.79
2018-04-16T08:13:40.814Z,1009.81
2018-04-16T08:14:40.812Z,1009.73
2018-04-16T08:15:40.826Z,1009.74
2018-04-16T08:16:40.838Z,1009.94
2018-04-16T08:17:40.869Z,1009.90
2018-04-16T08:18:40.870Z,1009.66
2018-04-16T08:19:40.904Z,1009.99
2018-04-16T08:20:40.906Z,1009.61
2018-04-16T08:21:40.949Z,1009.87
2018-04-16T08:22:40.957Z,1009.79
2018-04-16T08:23:40.956Z,1009.53
2018-04-16T08:24:40.980Z,1009.75
2018-04-16T08:25:40.981Z,1010.04
2018-04-16T08:26:41.008Z,1010.12
2018-04-16T08:27:41.016Z,1010.00
2018-04-16T08:28:41.032Z,1010.18
2018-04-16T08:29:41.053Z,1010.17
2018-04-16T08:30:41.064Z,1010.20
2018-04-16T08:31:41.091Z,1010.18
2018-04-16T08:32:41.103Z,1009.06
2018-04-16T08:33:41.127Z,1009.04
2018-04-16T08:34:41.137Z,1009.05
2018-04-16T08:35:41.152Z,1009.45
2018-04-16T08:36:41.171Z,1010.27
2018-04-16T08:37:41.202Z,1010.24
2018-04-16T08:38:41.216Z,1010.08
2018-04-16T08:39:41.219Z,1010.27
2018-04-16T08:40:41.245Z,1010.41
2018-04-16T08:41:41.252Z,1010.31
2018-04-16T08:42:41.271Z,1010.25
2018-04-16T08:43:41.291Z,1010.14
2018-04-16T08:44:41.312Z,1010.19
2018-04-16T08:45:41.328Z,1010.19
2018-04-16T08:46:41.354Z,1010.10
2018-04-16T08:47:41.367Z,1010.24
2018-04-16T08:48:41.395Z,1010.30
2018-04-16T08:49:41.411Z,1010.14
2018-04-16T08:50:41.417Z,1010.33
2018-04-16T08:51:41.439Z,1010.24
2018-04-16T08:52:41.545Z,1009.29
2018-04-16T08:53:41.477Z,1009.47
2018-04-16T08:54:41.490Z,1009.86
2018-04-16T08:55:41.521Z,1009.18
2018-04-16T08:56:41.529Z,1010.00
2018-04-16T08:57:41.558Z,1010.43
2018-04-16T08:58:41.581Z,1010.26
2018-04-16T08:59:41.649Z,1010.14
2018-04-16T09:00:41.633Z,1009.53
2018-04-16T09:01:41.618Z,1009.16
2018-04-16T09:02:41.636Z,1009.99
2018-04-16T09:03:41.667Z,1009.21
2018-04-16T09:04:41.682Z,1009.18
2018-04-16T09:05:41.693Z,1009.15
2018-04-16T09:06:41.714Z,1009.18
2018-04-16T09:07:41.735Z,1010.11
2018-04-16T09:08:41.794Z,1009.21
2018-04-16T09:09:41.769Z,1009.21
2018-04-16T09:10:41.787Z,1009.19
2018-04-16T09:11:41.796Z,1009.22
2018-04-16T09:12:41.813Z,1009.36
2018-04-16T09:13:41.826Z,1009.25
2018-04-16T09:14:41.848Z,1009.38
2018-04-16T09:15:41.867Z,1010.33
2018-04-16T09:16:41.880Z,1010.36
2018-04-16T09:17:41.995Z,1010.41
2018-04-16T09:18:41.910Z,1009.36
2018-04-16T09:19:41.938Z,1009.36
2018-04-16T09:20:41.945Z,1010.22
2018-04-16T09:21:41.951Z,1010.08
2018-04-16T09:22:41.969Z,1009.88
2018-04-16T09:23:41.989Z,1009.25
2018-04-16T09:24:42.008Z,1009.30
2018-04-16T09:25:42.012Z,1009.52
2018-04-16T09:26:42.034Z,1010.19
2018-04-16T09:27:42.047Z,1010.04
2018-04-16T09:28:42.061Z,1009.90
2018-04-16T09:29:42.084Z,1009.62
2018-04-16T09:30:42.106Z,1009.53
2018-04-16T09:31:42.110Z,1009.53
2018-04-16T09:32:42.130Z,1009.60
2018-04-16T09:33:42.150Z,1009.72
2018-04-16T09:34:42.234Z,1009.82
2018-04-16T09:35:42.168Z,1009.37
2018-04-16T09:36:42.181Z,1009.38
2018-04-16T09:37:42.203Z,1009.90
2018-04-16T09:38:42.231Z,1009.96
2018-04-16T09:39:42.235Z,1009.49
2018-04-16T09:40:42.345Z,1009.47
2018-04-16T09:41:42.429Z,1009.60
2018-04-16T09:42:42.280Z,1009.93
2018-04-16T09:43:42.282Z,1010.11
2018-04-16T09:44:42.307Z,1009.83
2018-04-16T09:45:42.327Z,1009.78
2018-04-16T09:46:42.326Z,1009.64
2018-04-16T09:47:42.345Z,1009.73
2018-04-16T09:48:42.356Z,1009.59
2018-04-16T09:49:42.373Z,1009.64
2018-04-16T09:50:42.386Z,1009.83
2018-04-16T09:51:42.408Z,1010.23
2018-04-16T09:52:42.419Z,1010.04
2018-04-16T09:53:42.429Z,1010.08
2018-04-16T09:54:42.450Z,1010.88
2018-04-16T09:55:42.458Z,1010.51
2018-04-16T09:56:42.478Z,1010.33
2018-04-16T09:57:42.497Z,1009.99
2018-04-16T09:58:42.505Z,1010.24
2018-04-16T09:59:42.520Z,1010.22
2018-04-16T10:00:42.535Z,1009.84
2018-04-16T10:01:42.550Z,1009.71
2018-04-16T10:02:42.557Z,1009.72
2018-04-16T10:03:42.569Z,1009.61
2018-04-16T10:04:42.593Z,1009.57
2018-04-16T10:05:42.612Z,1009.53
2018-04-16T10:06:42.620Z,1010.86
2018-04-16T10:07:42.635Z,1009.63
2018-04-16T10:08:42.649Z,1009.53
2018-04-16T10:09:42.688Z,1009.51
2018-04-16T10:10:42.688Z,1009.57
2018-04-16T10:11:42.701Z,1011.20
2018-04-16T10:12:42.705Z,1011.05
2018-04-16T10:13:42.726Z,1011.11
2018-04-16T10:14:42.741Z,1009.61
2018-04-16T10:15:42.754Z,1009.57
2018-04-16T10:16:42.784Z,1009.66
2018-04-16T10:17:42.775Z,1009.59
2018-04-16T10:18:42.794Z,1009.55
2018-04-16T10:19:42.806Z,1009.47
2018-04-16T10:20:42.829Z,1009.46
2018-04-16T10:21:42.851Z,1010.18
2018-04-16T10:22:42.863Z,1010.81
2018-04-16T10:23:42.876Z,1009.67
2018-04-16T10:24:42.883Z,1010.21
2018-04-16T10:25:42.891Z,1009.56
2018-04-16T10:26:42.910Z,1009.66
2018-04-16T10:27:42.923Z,1009.51
2018-04-16T10:28:42.946Z,1010.49
2018-04-16T10:29:42.953Z,1009.73
2018-04-16T10:30:42.982Z,1009.55
2018-04-16T10:31:42.978Z,1010.84
2018-04-16T10:32:42.989Z,1009.45
2018-04-16T10:33:43.060Z,1010.91
2018-04-16T10:34:43.028Z,1011.53
2018-04-16T10:35:43.045Z,1009.53
2018-04-16T10:36:43.051Z,1009.47
2018-04-16T10:37:43.069Z,1009.62
2018-04-16T10:38:43.088Z,1009.66
2018-04-16T10:39:43.092Z,1011.25
2018-04-16T10:40:43.105Z,1011.52
2018-04-16T10:41:43.142Z,1011.52
2018-04-16T10:42:43.129Z,1011.77
2018-04-16T10:43:43.145Z,1011.91
2018-04-16T10:44:43.156Z,1009.92
2018-04-16T10:45:43.175Z,1011.57
2018-04-16T10:46:43.188Z,1010.94
2018-04-16T10:47:43.194Z,1009.85
2018-04-16T10:48:43.215Z,1009.50
2018-04-16T10:49:43.266Z,1009.91
2018-04-16T10:50:43.241Z,1010.64
2018-04-16T10:51:43.264Z,1010.68
2018-04-16T10:52:43.271Z,1010.58
2018-04-16T10:53:43.304Z,1010.52
2018-04-16T10:54:43.333Z,1010.23
2018-04-16T10:55:43.381Z,1010.30
2018-04-16T10:56:43.378Z,1009.74
2018-04-16T10:57:43.377Z,1009.80
2018-04-16T10:58:43.376Z,1009.67
2018-04-16T10:59:43.405Z,1010.09
2018-04-16T11:00:43.414Z,1010.26
2018-04-16T11:01:43.426Z,1010.28
2018-04-16T11:02:43.421Z,1010.20
2018-04-16T11:03:43.500Z,1009.63
2018-04-16T11:04:43.633Z,1009.61
2018-04-16T11:05:43.499Z,1009.58
2018-04-16T11:06:43.495Z,1009.57
2018-04-16T11:07:43.525Z,1010.22
2018-04-16T11:08:43.539Z,1010.23
2018-04-16T11:09:43.550Z,1010.21
2018-04-16T11:10:43.567Z,1010.24
2018-04-16T11:11:43.575Z,1010.25
2018-04-16T11:12:43.580Z,1009.59
2018-04-16T11:13:43.598Z,1009.61
2018-04-16T11:14:43.615Z,1009.67
2018-04-16T11:15:43.591Z,1009.71
2018-04-16T11:16:43.602Z,1009.65
2018-04-16T11:17:43.625Z,1009.60
2018-04-16T11:18:43.634Z,1010.15
2018-04-16T11:19:43.652Z,1009.60
2018-04-16T11:20:43.675Z,1009.64
2018-04-16T11:21:43.673Z,1009.61
2018-04-16T11:22:43.691Z,1009.57
2018-04-16T11:23:43.736Z,1009.64
2018-04-16T11:24:43.738Z,1009.65
2018-04-16T11:25:43.734Z,1009.58
2018-04-16T11:26:43.750Z,1009.65
2018-04-16T11:27:43.755Z,1009.64
2018-04-16T11:28:43.775Z,1009.94
2018-04-16T11:29:43.800Z,1010.09
2018-04-16T11:30:43.796Z,1010.05
2018-04-16T11:31:43.831Z,1009.78
2018-04-16T11:32:43.877Z,1009.70
2018-04-16T11:33:43.830Z,1009.69
2018-04-16T11:34:43.847Z,1009.70
2018-04-16T11:35:43.858Z,1009.69
2018-04-16T11:36:43.868Z,1009.67
2018-04-16T11:37:43.889Z,1009.67
2018-04-16T11:38:43.903Z,1009.70
2018-04-16T11:39:43.926Z,1010.04
2018-04-16T11:40:43.920Z,1010.09
2018-04-16T11:41:43.934Z,1010.12
2018-04-16T11:42:43.948Z,1010.14
2018-04-16T11:43:43.961Z,1010.09
2018-04-16T11:44:43.973Z,1010.08
2018-04-16T11:45:43.983Z,1010.05
2018-04-16T11:46:43.994Z,1010.08
2018-04-16T11:47:44.014Z,1009.87
2018-04-16T11:48:44.019Z,1009.99
2018-04-16T11:49:44.043Z,1009.77
2018-04-16T11:50:44.050Z,1009.76
2018-04-16T11:51:44.053Z,1009.76
2018-04-16T11:52:44.076Z,1009.82
2018-04-16T11:53:44.078Z,1009.82
2018-04-16T11:54:44.097Z,1009.82
2018-04-16T11:55:44.107Z,1009.84
2018-04-16T11:56:44.143Z,1009.84
2018-04-16T11:57:44.134Z,1009.84
2018-04-16T11:58:44.168Z,1009.85
2018-04-16T11:59:44.155Z,1009.84
2018-04-16T12:00:44.177Z,1009.76
2018-04-16T12:01:44.180Z,1009.76
2018-04-16T12:02:44.194Z,1009.73
2018-04-16T12:03:44.209Z,1009.75
2018-04-16T12:04:44.219Z,1009.72
2018-04-16T12:05:44.239Z,1009.78